sensor_id;sensor_type;location;lat;lon;timestamp;temperature;humidity
11239;DHT22;5677;48.488;13.436;2023-04-01T00:01:28;10.10;40.50
11239;DHT22;5677;48.488;13.436;2023-04-01T00:03:55;10.10;40.50
11239;DHT22;5677;48.488;13.436;2023-04-01T00:06:23;10.10;40.50
11239;DHT22;5677;48.488;13.436;2023-04-01T00:08:50;10.10;40.50
11239;DHT22;5677;48.488;13.436;2023-04-01T00:11:19;10.10;40.50
11239;DHT22;5677;48.488;13.436;2023-04-01T00:13:47;10.10;40.50
11239;DHT22;5677;48.488;13.436;2023-04-01T00:16:14;10.10;40.50
11239;DHT22;5677;48.488;13.436;2023-04-01T00:18:41;10.10;40.50
11239;DHT22;5677;48.488;13.436;2023-04-01T00:21:08;10.10;40.50
11239;DHT22;5677;48.488;13.436;2023-04-01T00:23:35;10.10;40.50
11239;DHT22;5677;48.488;13.436;2023-04-01T00:26:02;10.10;40.50
11239;DHT22;5677;48.488;13.436;2023-04-01T00:28:31;10.10;40.50
11239;DHT22;5677;48.488;13.436;2023-04-01T00:31:05;10.10;40.50
11239;DHT22;5677;48.488;13.436;2023-04-01T00:33:32;10.10;40.50
11239;DHT22;5677;48.488;13.436;2023-04-01T00:36:06;10.10;40.50
11239;DHT22;5677;48.488;13.436;2023-04-01T00:38:33;10.10;40.50
11239;DHT22;5677;48.488;13.436;2023-04-01T00:41:00;10.10;40.50
11239;DHT22;5677;48.488;13.436;2023-04-01T00:43:27;10.10;40.50
11239;DHT22;5677;48.488;13.436;2023-04-01T00:45:55;10.10;40.50
11239;DHT22;5677;48.488;13.436;2023-04-01T00:48:23;10.10;40.50
11239;DHT22;5677;48.488;13.436;2023-04-01T00:50:54;10.10;40.50
11239;DHT22;5677;48.488;13.436;2023-04-01T00:53:23;10.10;40.50
11239;DHT22;5677;48.488;13.436;2023-04-01T00:55:55;10.10;40.50
11239;DHT22;5677;48.488;13.436;2023-04-01T00:58:26;10.10;40.50
11239;DHT22;5677;48.488;13.436;2023-04-01T01:00:56;10.10;40.50
11239;DHT22;5677;48.488;13.436;2023-04-01T01:03:23;10.10;40.60
11239;DHT22;5677;48.488;13.436;2023-04-01T01:06:08;10.10;40.50
11239;DHT22;5677;48.488;13.436;2023-04-01T01:08:57;10.10;40.50
11239;DHT22;5677;48.488;13.436;2023-04-01T01:11:35;10.10;40.60
11239;DHT22;5677;48.488;13.436;2023-04-01T01:14:09;10.10;40.50
11239;DHT22;5677;48.488;13.436;2023-04-01T01:16:43;10.10;40.60
11239;DHT22;5677;48.488;13.436;2023-04-01T01:19:23;10.10;40.50
11239;DHT22;5677;48.488;13.436;2023-04-01T01:22:17;10.10;40.50
11239;DHT22;5677;48.488;13.436;2023-04-01T01:24:54;10.10;40.50
11239;DHT22;5677;48.488;13.436;2023-04-01T01:27:23;10.10;40.50
11239;DHT22;5677;48.488;13.436;2023-04-01T01:30:21;10.10;40.50
11239;DHT22;5677;48.488;13.436;2023-04-01T01:33:02;10.10;41.20
11239;DHT22;5677;48.488;13.436;2023-04-01T01:35:36;10.10;40.60
11239;DHT22;5677;48.488;13.436;2023-04-01T01:38:08;10.10;40.60
11239;DHT22;5677;48.488;13.436;2023-04-01T01:40:37;10.10;40.60
11239;DHT22;5677;48.488;13.436;2023-04-01T01:43:09;10.10;40.60
11239;DHT22;5677;48.488;13.436;2023-04-01T01:45:40;10.10;40.60
11239;DHT22;5677;48.488;13.436;2023-04-01T01:48:11;10.10;40.60
11239;DHT22;5677;48.488;13.436;2023-04-01T01:50:40;10.10;40.60
11239;DHT22;5677;48.488;13.436;2023-04-01T01:53:10;10.10;40.60
11239;DHT22;5677;48.488;13.436;2023-04-01T01:55:39;10.10;40.60
11239;DHT22;5677;48.488;13.436;2023-04-01T01:58:11;10.10;40.60
11239;DHT22;5677;48.488;13.436;2023-04-01T02:00:39;10.10;40.60
11239;DHT22;5677;48.488;13.436;2023-04-01T02:03:07;10.10;40.60
11239;DHT22;5677;48.488;13.436;2023-04-01T02:05:34;10.10;40.60
11239;DHT22;5677;48.488;13.436;2023-04-01T02:08:07;10.10;40.60
11239;DHT22;5677;48.488;13.436;2023-04-01T02:10:37;10.10;40.60
11239;DHT22;5677;48.488;13.436;2023-04-01T02:13:11;10.10;40.60
11239;DHT22;5677;48.488;13.436;2023-04-01T02:15:44;10.10;40.60
11239;DHT22;5677;48.488;13.436;2023-04-01T02:18:13;10.10;40.60
11239;DHT22;5677;48.488;13.436;2023-04-01T02:20:41;10.10;40.60
11239;DHT22;5677;48.488;13.436;2023-04-01T02:23:10;10.10;40.60
11239;DHT22;5677;48.488;13.436;2023-04-01T02:25:38;10.10;41.30
11239;DHT22;5677;48.488;13.436;2023-04-01T02:28:06;10.10;40.60
11239;DHT22;5677;48.488;13.436;2023-04-01T02:30:36;10.10;40.60
11239;DHT22;5677;48.488;13.436;2023-04-01T02:33:05;10.10;40.60
11239;DHT22;5677;48.488;13.436;2023-04-01T02:35:34;10.10;40.60
11239;DHT22;5677;48.488;13.436;2023-04-01T02:38:02;10.10;40.60
11239;DHT22;5677;48.488;13.436;2023-04-01T02:40:41;10.10;40.60
11239;DHT22;5677;48.488;13.436;2023-04-01T02:43:08;10.10;40.70
11239;DHT22;5677;48.488;13.436;2023-04-01T02:45:35;10.10;40.70
11239;DHT22;5677;48.488;13.436;2023-04-01T02:48:02;10.10;40.70
11239;DHT22;5677;48.488;13.436;2023-04-01T02:50:29;10.10;41.40
11239;DHT22;5677;48.488;13.436;2023-04-01T02:52:55;10.10;40.70
11239;DHT22;5677;48.488;13.436;2023-04-01T02:55:22;10.10;40.70
11239;DHT22;5677;48.488;13.436;2023-04-01T02:57:50;10.10;40.70
11239;DHT22;5677;48.488;13.436;2023-04-01T03:00:17;10.10;40.60
11239;DHT22;5677;48.488;13.436;2023-04-01T03:02:44;10.10;40.60
11239;DHT22;5677;48.488;13.436;2023-04-01T03:05:11;10.10;40.70
11239;DHT22;5677;48.488;13.436;2023-04-01T03:07:38;10.10;40.70
11239;DHT22;5677;48.488;13.436;2023-04-01T03:10:06;10.10;40.70
11239;DHT22;5677;48.488;13.436;2023-04-01T03:12:32;10.10;40.70
11239;DHT22;5677;48.488;13.436;2023-04-01T03:15:01;10.10;40.70
11239;DHT22;5677;48.488;13.436;2023-04-01T03:17:27;10.10;40.70
11239;DHT22;5677;48.488;13.436;2023-04-01T03:19:54;10.10;40.70
11239;DHT22;5677;48.488;13.436;2023-04-01T03:22:21;10.10;40.70
11239;DHT22;5677;48.488;13.436;2023-04-01T03:24:48;10.10;40.70
11239;DHT22;5677;48.488;13.436;2023-04-01T03:27:15;10.10;40.70
11239;DHT22;5677;48.488;13.436;2023-04-01T03:29:41;10.10;40.70
11239;DHT22;5677;48.488;13.436;2023-04-01T03:32:10;10.10;40.70
11239;DHT22;5677;48.488;13.436;2023-04-01T03:34:36;10.10;40.70
11239;DHT22;5677;48.488;13.436;2023-04-01T03:37:03;10.10;40.80
11239;DHT22;5677;48.488;13.436;2023-04-01T03:39:31;10.00;40.60
11239;DHT22;5677;48.488;13.436;2023-04-01T03:41:57;10.10;40.70
11239;DHT22;5677;48.488;13.436;2023-04-01T03:44:25;10.10;40.70
11239;DHT22;5677;48.488;13.436;2023-04-01T03:46:52;10.10;40.70
11239;DHT22;5677;48.488;13.436;2023-04-01T03:49:20;10.00;40.70
11239;DHT22;5677;48.488;13.436;2023-04-01T03:51:46;10.10;40.80
11239;DHT22;5677;48.488;13.436;2023-04-01T03:54:13;10.00;40.70
11239;DHT22;5677;48.488;13.436;2023-04-01T03:56:40;10.00;40.60
11239;DHT22;5677;48.488;13.436;2023-04-01T03:59:07;10.10;40.80
11239;DHT22;5677;48.488;13.436;2023-04-01T04:01:35;10.10;40.70
11239;DHT22;5677;48.488;13.436;2023-04-01T04:04:01;10.10;40.70
11239;DHT22;5677;48.488;13.436;2023-04-01T04:06:30;10.10;40.80
11239;DHT22;5677;48.488;13.436;2023-04-01T04:08:57;10.10;40.80
11239;DHT22;5677;48.488;13.436;2023-04-01T04:11:24;10.00;40.60
11239;DHT22;5677;48.488;13.436;2023-04-01T04:13:51;10.10;40.80
11239;DHT22;5677;48.488;13.436;2023-04-01T04:16:18;10.00;40.60
11239;DHT22;5677;48.488;13.436;2023-04-01T04:18:45;10.10;40.80
11239;DHT22;5677;48.488;13.436;2023-04-01T04:21:13;10.00;40.60
11239;DHT22;5677;48.488;13.436;2023-04-01T04:23:41;10.10;40.80
11239;DHT22;5677;48.488;13.436;2023-04-01T04:26:10;10.10;40.80
11239;DHT22;5677;48.488;13.436;2023-04-01T04:28:38;10.10;40.70
11239;DHT22;5677;48.488;13.436;2023-04-01T04:31:05;10.10;40.80
11239;DHT22;5677;48.488;13.436;2023-04-01T04:33:32;10.10;40.80
11239;DHT22;5677;48.488;13.436;2023-04-01T04:35:59;10.10;40.80
11239;DHT22;5677;48.488;13.436;2023-04-01T04:38:27;10.10;40.80
11239;DHT22;5677;48.488;13.436;2023-04-01T04:40:56;10.00;40.70
11239;DHT22;5677;48.488;13.436;2023-04-01T04:43:22;10.10;40.80
11239;DHT22;5677;48.488;13.436;2023-04-01T04:45:49;10.10;40.80
11239;DHT22;5677;48.488;13.436;2023-04-01T04:48:16;10.10;40.80
11239;DHT22;5677;48.488;13.436;2023-04-01T04:50:46;10.10;40.80
11239;DHT22;5677;48.488;13.436;2023-04-01T04:53:14;10.00;40.70
11239;DHT22;5677;48.488;13.436;2023-04-01T04:55:43;10.00;40.70
11239;DHT22;5677;48.488;13.436;2023-04-01T04:58:11;10.10;40.80
11239;DHT22;5677;48.488;13.436;2023-04-01T05:00:38;10.00;40.70
11239;DHT22;5677;48.488;13.436;2023-04-01T05:03:05;10.10;40.80
11239;DHT22;5677;48.488;13.436;2023-04-01T05:05:32;10.10;40.80
11239;DHT22;5677;48.488;13.436;2023-04-01T05:07:58;10.10;40.80
11239;DHT22;5677;48.488;13.436;2023-04-01T05:10:25;10.00;40.70
11239;DHT22;5677;48.488;13.436;2023-04-01T05:12:52;10.10;40.90
11239;DHT22;5677;48.488;13.436;2023-04-01T05:15:21;10.10;40.80
11239;DHT22;5677;48.488;13.436;2023-04-01T05:17:47;10.10;40.90
11239;DHT22;5677;48.488;13.436;2023-04-01T05:20:15;10.00;40.70
11239;DHT22;5677;48.488;13.436;2023-04-01T05:22:42;10.00;40.80
11239;DHT22;5677;48.488;13.436;2023-04-01T05:25:09;10.10;40.90
11239;DHT22;5677;48.488;13.436;2023-04-01T05:27:36;10.10;40.90
11239;DHT22;5677;48.488;13.436;2023-04-01T05:30:03;10.00;40.70
11239;DHT22;5677;48.488;13.436;2023-04-01T05:32:32;10.00;40.80
11239;DHT22;5677;48.488;13.436;2023-04-01T05:34:59;10.00;40.80
11239;DHT22;5677;48.488;13.436;2023-04-01T05:37:25;10.10;40.90
11239;DHT22;5677;48.488;13.436;2023-04-01T05:39:52;10.10;41.50
11239;DHT22;5677;48.488;13.436;2023-04-01T05:42:19;10.10;40.90
11239;DHT22;5677;48.488;13.436;2023-04-01T05:44:45;10.10;40.90
11239;DHT22;5677;48.488;13.436;2023-04-01T05:47:12;10.10;40.90
11239;DHT22;5677;48.488;13.436;2023-04-01T05:49:40;10.00;40.80
11239;DHT22;5677;48.488;13.436;2023-04-01T05:52:07;10.10;40.90
11239;DHT22;5677;48.488;13.436;2023-04-01T05:54:34;10.10;40.90
11239;DHT22;5677;48.488;13.436;2023-04-01T05:57:01;10.10;40.90
11239;DHT22;5677;48.488;13.436;2023-04-01T05:59:28;10.10;40.90
11239;DHT22;5677;48.488;13.436;2023-04-01T06:01:56;10.00;40.80
11239;DHT22;5677;48.488;13.436;2023-04-01T06:04:24;10.10;40.90
11239;DHT22;5677;48.488;13.436;2023-04-01T06:06:52;10.10;40.90
11239;DHT22;5677;48.488;13.436;2023-04-01T06:09:23;10.10;40.80
11239;DHT22;5677;48.488;13.436;2023-04-01T06:12:13;10.10;40.90
11239;DHT22;5677;48.488;13.436;2023-04-01T06:14:50;10.10;40.80
11239;DHT22;5677;48.488;13.436;2023-04-01T06:17:26;10.10;40.90
11239;DHT22;5677;48.488;13.436;2023-04-01T06:20:01;10.10;40.80
11239;DHT22;5677;48.488;13.436;2023-04-01T06:22:56;10.10;40.80
11239;DHT22;5677;48.488;13.436;2023-04-01T06:25:37;10.10;40.90
11239;DHT22;5677;48.488;13.436;2023-04-01T06:28:36;10.10;40.90
11239;DHT22;5677;48.488;13.436;2023-04-01T06:31:11;10.00;40.80
11239;DHT22;5677;48.488;13.436;2023-04-01T06:33:52;10.10;40.90
11239;DHT22;5677;48.488;13.436;2023-04-01T06:36:37;10.10;40.90
11239;DHT22;5677;48.488;13.436;2023-04-01T06:39:30;10.10;40.90
11239;DHT22;5677;48.488;13.436;2023-04-01T06:42:16;10.10;40.90
11239;DHT22;5677;48.488;13.436;2023-04-01T06:44:56;10.10;40.90
11239;DHT22;5677;48.488;13.436;2023-04-01T06:47:36;10.10;40.90
11239;DHT22;5677;48.488;13.436;2023-04-01T06:50:15;10.10;40.90
11239;DHT22;5677;48.488;13.436;2023-04-01T06:52:51;10.10;40.90
11239;DHT22;5677;48.488;13.436;2023-04-01T06:55:37;10.10;40.80
11239;DHT22;5677;48.488;13.436;2023-04-01T06:58:12;10.10;40.90
11239;DHT22;5677;48.488;13.436;2023-04-01T07:00:42;10.10;40.90
11239;DHT22;5677;48.488;13.436;2023-04-01T07:03:17;10.10;40.90
11239;DHT22;5677;48.488;13.436;2023-04-01T07:05:46;10.10;40.90
11239;DHT22;5677;48.488;13.436;2023-04-01T07:08:17;10.10;40.80
11239;DHT22;5677;48.488;13.436;2023-04-01T07:10:50;10.10;40.80
11239;DHT22;5677;48.488;13.436;2023-04-01T07:13:20;10.10;40.80
11239;DHT22;5677;48.488;13.436;2023-04-01T07:15:55;10.20;40.80
11239;DHT22;5677;48.488;13.436;2023-04-01T07:18:30;10.20;40.80
11239;DHT22;5677;48.488;13.436;2023-04-01T07:20:58;10.20;40.80
11239;DHT22;5677;48.488;13.436;2023-04-01T07:23:28;10.20;40.80
11239;DHT22;5677;48.488;13.436;2023-04-01T07:26:01;10.20;40.80
11239;DHT22;5677;48.488;13.436;2023-04-01T07:28:32;10.20;40.70
11239;DHT22;5677;48.488;13.436;2023-04-01T07:31:09;10.20;40.80
11239;DHT22;5677;48.488;13.436;2023-04-01T07:33:42;10.20;40.70
11239;DHT22;5677;48.488;13.436;2023-04-01T07:36:14;10.20;40.70
11239;DHT22;5677;48.488;13.436;2023-04-01T07:38:53;10.20;40.80
11239;DHT22;5677;48.488;13.436;2023-04-01T07:41:29;10.20;40.70
11239;DHT22;5677;48.488;13.436;2023-04-01T07:44:07;10.20;40.70
11239;DHT22;5677;48.488;13.436;2023-04-01T07:46:49;10.20;40.70
11239;DHT22;5677;48.488;13.436;2023-04-01T07:49:21;10.20;40.70
11239;DHT22;5677;48.488;13.436;2023-04-01T07:51:56;10.20;40.70
11239;DHT22;5677;48.488;13.436;2023-04-01T07:54:28;10.20;41.30
11239;DHT22;5677;48.488;13.436;2023-04-01T07:57:02;10.20;40.60
11239;DHT22;5677;48.488;13.436;2023-04-01T07:59:33;10.20;40.70
11239;DHT22;5677;48.488;13.436;2023-04-01T08:02:08;10.20;40.70
11239;DHT22;5677;48.488;13.436;2023-04-01T08:04:49;10.20;40.60
11239;DHT22;5677;48.488;13.436;2023-04-01T08:07:21;10.20;40.50
11239;DHT22;5677;48.488;13.436;2023-04-01T08:09:53;10.30;40.60
11239;DHT22;5677;48.488;13.436;2023-04-01T08:12:29;10.30;40.50
11239;DHT22;5677;48.488;13.436;2023-04-01T08:15:06;10.30;40.50
11239;DHT22;5677;48.488;13.436;2023-04-01T08:17:39;10.30;40.50
11239;DHT22;5677;48.488;13.436;2023-04-01T08:20:18;10.30;40.50
11239;DHT22;5677;48.488;13.436;2023-04-01T08:22:51;10.30;40.50
11239;DHT22;5677;48.488;13.436;2023-04-01T08:25:24;10.30;40.40
11239;DHT22;5677;48.488;13.436;2023-04-01T08:27:56;10.30;40.50
11239;DHT22;5677;48.488;13.436;2023-04-01T08:30:26;10.30;40.40
11239;DHT22;5677;48.488;13.436;2023-04-01T08:32:58;10.30;40.40
11239;DHT22;5677;48.488;13.436;2023-04-01T08:35:29;10.30;40.40
11239;DHT22;5677;48.488;13.436;2023-04-01T08:37:59;10.30;40.50
11239;DHT22;5677;48.488;13.436;2023-04-01T08:40:57;10.30;40.50
11239;DHT22;5677;48.488;13.436;2023-04-01T08:43:50;10.30;40.40
11239;DHT22;5677;48.488;13.436;2023-04-01T08:46:40;10.30;40.50
11239;DHT22;5677;48.488;13.436;2023-04-01T08:49:21;10.30;40.50
11239;DHT22;5677;48.488;13.436;2023-04-01T08:52:21;10.30;40.40
11239;DHT22;5677;48.488;13.436;2023-04-01T08:55:22;10.30;40.50
11239;DHT22;5677;48.488;13.436;2023-04-01T09:00:47;10.30;40.50
11239;DHT22;5677;48.488;13.436;2023-04-01T09:03:48;10.30;40.50
11239;DHT22;5677;48.488;13.436;2023-04-01T09:06:33;10.30;40.40
11239;DHT22;5677;48.488;13.436;2023-04-01T09:09:34;10.30;40.50
11239;DHT22;5677;48.488;13.436;2023-04-01T09:12:25;10.30;40.50
11239;DHT22;5677;48.488;13.436;2023-04-01T09:15:24;10.30;40.50
11239;DHT22;5677;48.488;13.436;2023-04-01T09:18:24;10.30;40.50
11239;DHT22;5677;48.488;13.436;2023-04-01T09:21:09;10.30;40.50
11239;DHT22;5677;48.488;13.436;2023-04-01T09:23:51;10.30;40.40
11239;DHT22;5677;48.488;13.436;2023-04-01T09:26:42;10.30;40.40
11239;DHT22;5677;48.488;13.436;2023-04-01T09:29:23;10.30;40.50
11239;DHT22;5677;48.488;13.436;2023-04-01T09:32:12;10.30;40.30
11239;DHT22;5677;48.488;13.436;2023-04-01T09:34:53;10.30;40.40
11239;DHT22;5677;48.488;13.436;2023-04-01T09:37:23;10.40;40.30
11239;DHT22;5677;48.488;13.436;2023-04-01T09:40:14;10.40;40.20
11239;DHT22;5677;48.488;13.436;2023-04-01T09:42:44;10.40;40.20
11239;DHT22;5677;48.488;13.436;2023-04-01T09:45:25;10.40;40.20
11239;DHT22;5677;48.488;13.436;2023-04-01T09:48:08;10.40;40.20
11239;DHT22;5677;48.488;13.436;2023-04-01T09:50:48;10.40;40.20
11239;DHT22;5677;48.488;13.436;2023-04-01T09:53:34;10.40;40.20
11239;DHT22;5677;48.488;13.436;2023-04-01T09:59:31;10.40;40.20
11239;DHT22;5677;48.488;13.436;2023-04-01T10:11:23;10.40;40.20
11239;DHT22;5677;48.488;13.436;2023-04-01T10:14:19;10.40;40.20
11239;DHT22;5677;48.488;13.436;2023-04-01T10:20:00;10.40;40.20
11239;DHT22;5677;48.488;13.436;2023-04-01T10:25:55;10.40;40.50
11239;DHT22;5677;48.488;13.436;2023-04-01T10:31:54;10.40;40.20
11239;DHT22;5677;48.488;13.436;2023-04-01T10:34:56;10.40;40.20
11239;DHT22;5677;48.488;13.436;2023-04-01T10:40:43;10.40;40.20
11239;DHT22;5677;48.488;13.436;2023-04-01T10:43:38;10.40;40.20
11239;DHT22;5677;48.488;13.436;2023-04-01T10:46:38;10.40;40.20
11239;DHT22;5677;48.488;13.436;2023-04-01T10:49:41;10.40;40.20
11239;DHT22;5677;48.488;13.436;2023-04-01T10:52:41;10.40;40.20
11239;DHT22;5677;48.488;13.436;2023-04-01T10:55:35;10.40;40.20
11239;DHT22;5677;48.488;13.436;2023-04-01T11:01:36;10.40;40.20
11239;DHT22;5677;48.488;13.436;2023-04-01T11:04:48;10.50;40.30
11239;DHT22;5677;48.488;13.436;2023-04-01T11:08:03;10.50;40.30
11239;DHT22;5677;48.488;13.436;2023-04-01T11:11:12;10.50;40.20
11239;DHT22;5677;48.488;13.436;2023-04-01T11:20:34;10.50;40.20
11239;DHT22;5677;48.488;13.436;2023-04-01T11:23:30;10.50;40.20
11239;DHT22;5677;48.488;13.436;2023-04-01T11:26:09;10.50;40.20
11239;DHT22;5677;48.488;13.436;2023-04-01T11:28:59;10.50;40.20
11239;DHT22;5677;48.488;13.436;2023-04-01T11:31:37;10.50;40.20
11239;DHT22;5677;48.488;13.436;2023-04-01T11:34:15;10.50;40.30
11239;DHT22;5677;48.488;13.436;2023-04-01T11:36:51;10.50;40.30
11239;DHT22;5677;48.488;13.436;2023-04-01T11:39:29;10.50;40.30
11239;DHT22;5677;48.488;13.436;2023-04-01T11:42:09;10.50;40.30
11239;DHT22;5677;48.488;13.436;2023-04-01T11:44:43;10.50;40.30
11239;DHT22;5677;48.488;13.436;2023-04-01T11:47:27;10.50;40.30
11239;DHT22;5677;48.488;13.436;2023-04-01T11:50:11;10.50;40.30
11239;DHT22;5677;48.488;13.436;2023-04-01T11:53:15;10.50;40.30
11239;DHT22;5677;48.488;13.436;2023-04-01T11:55:51;10.50;40.30
11239;DHT22;5677;48.488;13.436;2023-04-01T11:58:41;10.50;40.40
11239;DHT22;5677;48.488;13.436;2023-04-01T12:01:24;10.50;40.40
11239;DHT22;5677;48.488;13.436;2023-04-01T12:07:17;10.50;40.30
11239;DHT22;5677;48.488;13.436;2023-04-01T12:09:52;10.50;40.30
11239;DHT22;5677;48.488;13.436;2023-04-01T12:12:29;10.50;40.30
11239;DHT22;5677;48.488;13.436;2023-04-01T12:15:05;10.50;40.30
11239;DHT22;5677;48.488;13.436;2023-04-01T12:17:44;10.50;40.30
11239;DHT22;5677;48.488;13.436;2023-04-01T12:20:28;10.50;40.20
11239;DHT22;5677;48.488;13.436;2023-04-01T12:23:15;10.60;40.20
11239;DHT22;5677;48.488;13.436;2023-04-01T12:26:10;10.50;40.20
11239;DHT22;5677;48.488;13.436;2023-04-01T12:28:49;10.50;40.20
11239;DHT22;5677;48.488;13.436;2023-04-01T12:31:31;10.50;40.20
11239;DHT22;5677;48.488;13.436;2023-04-01T12:34:20;10.50;40.20
11239;DHT22;5677;48.488;13.436;2023-04-01T12:36:57;10.50;40.20
11239;DHT22;5677;48.488;13.436;2023-04-01T12:39:44;10.50;40.30
11239;DHT22;5677;48.488;13.436;2023-04-01T12:42:22;10.50;40.20
11239;DHT22;5677;48.488;13.436;2023-04-01T12:45:04;10.50;40.20
11239;DHT22;5677;48.488;13.436;2023-04-01T12:47:56;10.50;40.30
11239;DHT22;5677;48.488;13.436;2023-04-01T12:50:42;10.50;40.30
11239;DHT22;5677;48.488;13.436;2023-04-01T12:53:36;10.50;40.30
11239;DHT22;5677;48.488;13.436;2023-04-01T12:56:09;10.50;40.30
11239;DHT22;5677;48.488;13.436;2023-04-01T12:58:55;10.50;40.30
11239;DHT22;5677;48.488;13.436;2023-04-01T13:01:52;10.50;40.30
11239;DHT22;5677;48.488;13.436;2023-04-01T13:04:56;10.50;40.30
11239;DHT22;5677;48.488;13.436;2023-04-01T13:07:44;10.50;40.30
11239;DHT22;5677;48.488;13.436;2023-04-01T13:10:24;10.50;40.30
11239;DHT22;5677;48.488;13.436;2023-04-01T13:13:05;10.50;40.30
11239;DHT22;5677;48.488;13.436;2023-04-01T13:15:39;10.50;40.40
11239;DHT22;5677;48.488;13.436;2023-04-01T13:18:16;10.50;40.40
11239;DHT22;5677;48.488;13.436;2023-04-01T13:20:51;10.50;40.40
11239;DHT22;5677;48.488;13.436;2023-04-01T13:23:31;10.50;40.40
11239;DHT22;5677;48.488;13.436;2023-04-01T13:26:07;10.50;40.40
11239;DHT22;5677;48.488;13.436;2023-04-01T13:28:39;10.50;40.50
11239;DHT22;5677;48.488;13.436;2023-04-01T13:31:20;10.50;40.40
11239;DHT22;5677;48.488;13.436;2023-04-01T13:33:55;10.50;40.40
11239;DHT22;5677;48.488;13.436;2023-04-01T13:36:32;10.50;40.40
11239;DHT22;5677;48.488;13.436;2023-04-01T13:39:08;10.50;40.40
11239;DHT22;5677;48.488;13.436;2023-04-01T13:44:32;10.50;40.40
11239;DHT22;5677;48.488;13.436;2023-04-01T13:47:30;10.60;40.40
11239;DHT22;5677;48.488;13.436;2023-04-01T13:50:20;10.50;40.40
11239;DHT22;5677;48.488;13.436;2023-04-01T13:53:01;10.50;40.50
11239;DHT22;5677;48.488;13.436;2023-04-01T13:55:43;10.50;40.40
11239;DHT22;5677;48.488;13.436;2023-04-01T13:58:35;10.50;40.50
11239;DHT22;5677;48.488;13.436;2023-04-01T14:01:08;10.50;40.50
11239;DHT22;5677;48.488;13.436;2023-04-01T14:03:54;10.60;40.50
11239;DHT22;5677;48.488;13.436;2023-04-01T14:06:33;10.50;40.50
11239;DHT22;5677;48.488;13.436;2023-04-01T14:09:34;10.60;40.50
11239;DHT22;5677;48.488;13.436;2023-04-01T14:12:09;10.50;40.50
11239;DHT22;5677;48.488;13.436;2023-04-01T14:14:47;10.50;40.60
11239;DHT22;5677;48.488;13.436;2023-04-01T14:17:30;10.50;40.60
11239;DHT22;5677;48.488;13.436;2023-04-01T14:20:22;10.50;40.60
11239;DHT22;5677;48.488;13.436;2023-04-01T14:23:03;10.60;40.60
11239;DHT22;5677;48.488;13.436;2023-04-01T14:25:51;10.60;40.60
11239;DHT22;5677;48.488;13.436;2023-04-01T14:28:28;10.60;40.50
11239;DHT22;5677;48.488;13.436;2023-04-01T14:31:18;10.50;40.60
11239;DHT22;5677;48.488;13.436;2023-04-01T14:33:58;10.60;40.60
11239;DHT22;5677;48.488;13.436;2023-04-01T14:36:49;10.60;40.60
11239;DHT22;5677;48.488;13.436;2023-04-01T14:39:48;10.60;40.60
11239;DHT22;5677;48.488;13.436;2023-04-01T14:42:36;10.60;40.60
11239;DHT22;5677;48.488;13.436;2023-04-01T14:45:32;10.60;40.60
11239;DHT22;5677;48.488;13.436;2023-04-01T14:48:15;10.60;40.70
11239;DHT22;5677;48.488;13.436;2023-04-01T14:50:45;10.60;40.70
11239;DHT22;5677;48.488;13.436;2023-04-01T14:53:26;10.50;40.70
11239;DHT22;5677;48.488;13.436;2023-04-01T14:55:55;10.50;40.70
11239;DHT22;5677;48.488;13.436;2023-04-01T14:58:23;10.50;40.70
11239;DHT22;5677;48.488;13.436;2023-04-01T15:01:01;10.50;40.80
11239;DHT22;5677;48.488;13.436;2023-04-01T15:03:38;10.50;40.80
11239;DHT22;5677;48.488;13.436;2023-04-01T15:06:31;10.50;40.70
11239;DHT22;5677;48.488;13.436;2023-04-01T15:09:06;10.50;40.80
11239;DHT22;5677;48.488;13.436;2023-04-01T15:11:47;10.50;40.80
11239;DHT22;5677;48.488;13.436;2023-04-01T15:14:30;10.50;40.90
11239;DHT22;5677;48.488;13.436;2023-04-01T15:17:16;10.50;40.90
11239;DHT22;5677;48.488;13.436;2023-04-01T15:19:59;10.50;40.90
11239;DHT22;5677;48.488;13.436;2023-04-01T15:25:38;10.50;40.90
11239;DHT22;5677;48.488;13.436;2023-04-01T15:28:15;10.50;40.90
11239;DHT22;5677;48.488;13.436;2023-04-01T15:30:50;10.50;40.90
11239;DHT22;5677;48.488;13.436;2023-04-01T15:33:28;10.50;40.90
11239;DHT22;5677;48.488;13.436;2023-04-01T15:36:02;10.50;40.90
11239;DHT22;5677;48.488;13.436;2023-04-01T15:38:36;10.50;40.90
11239;DHT22;5677;48.488;13.436;2023-04-01T15:41:13;10.50;41.00
11239;DHT22;5677;48.488;13.436;2023-04-01T15:43:42;10.50;41.00
11239;DHT22;5677;48.488;13.436;2023-04-01T15:46:25;10.50;41.00
11239;DHT22;5677;48.488;13.436;2023-04-01T15:49:03;10.50;41.00
11239;DHT22;5677;48.488;13.436;2023-04-01T15:51:44;10.50;41.00
11239;DHT22;5677;48.488;13.436;2023-04-01T15:57:28;10.50;41.00
11239;DHT22;5677;48.488;13.436;2023-04-01T16:00:10;10.50;40.90
11239;DHT22;5677;48.488;13.436;2023-04-01T16:02:44;10.50;40.90
11239;DHT22;5677;48.488;13.436;2023-04-01T16:05:25;10.50;40.90
11239;DHT22;5677;48.488;13.436;2023-04-01T16:08:07;10.50;40.90
11239;DHT22;5677;48.488;13.436;2023-04-01T16:10:49;10.50;40.90
11239;DHT22;5677;48.488;13.436;2023-04-01T16:13:28;10.50;40.90
11239;DHT22;5677;48.488;13.436;2023-04-01T16:16:07;10.50;40.90
11239;DHT22;5677;48.488;13.436;2023-04-01T16:18:49;10.50;41.00
11239;DHT22;5677;48.488;13.436;2023-04-01T16:21:28;10.50;41.00
11239;DHT22;5677;48.488;13.436;2023-04-01T16:24:05;10.50;41.00
11239;DHT22;5677;48.488;13.436;2023-04-01T16:26:39;10.50;40.90
11239;DHT22;5677;48.488;13.436;2023-04-01T16:29:17;10.50;40.90
11239;DHT22;5677;48.488;13.436;2023-04-01T16:31:50;10.50;40.90
11239;DHT22;5677;48.488;13.436;2023-04-01T16:34:24;10.50;41.00
11239;DHT22;5677;48.488;13.436;2023-04-01T16:37:00;10.50;41.00
11239;DHT22;5677;48.488;13.436;2023-04-01T16:39:34;10.50;41.60
11239;DHT22;5677;48.488;13.436;2023-04-01T16:42:16;10.50;40.90
11239;DHT22;5677;48.488;13.436;2023-04-01T16:44:50;10.50;40.90
11239;DHT22;5677;48.488;13.436;2023-04-01T16:47:22;10.50;41.00
11239;DHT22;5677;48.488;13.436;2023-04-01T16:49:58;10.50;41.00
11239;DHT22;5677;48.488;13.436;2023-04-01T16:52:53;10.50;41.00
11239;DHT22;5677;48.488;13.436;2023-04-01T16:55:43;10.50;41.00
11239;DHT22;5677;48.488;13.436;2023-04-01T16:58:15;10.50;41.00
11239;DHT22;5677;48.488;13.436;2023-04-01T17:00:48;10.40;40.90
11239;DHT22;5677;48.488;13.436;2023-04-01T17:03:20;10.40;40.90
11239;DHT22;5677;48.488;13.436;2023-04-01T17:05:55;10.50;41.00
11239;DHT22;5677;48.488;13.436;2023-04-01T17:08:31;10.40;40.90
11239;DHT22;5677;48.488;13.436;2023-04-01T17:11:08;10.40;40.90
11239;DHT22;5677;48.488;13.436;2023-04-01T17:13:41;10.40;40.90
11239;DHT22;5677;48.488;13.436;2023-04-01T17:16:50;10.50;41.00
11239;DHT22;5677;48.488;13.436;2023-04-01T17:19:28;10.40;40.90